Time;durP1;ratioP1;P1;durP2;ratioP2;P2;SDS_P1;SDS_P2;PMS_P1;PMS_P2;Temp;Humidity;BMP_temperature;BMP_pressure;BME280_temperature;BME280_humidity;BME280_pressure;Samples;Min_cycle;Max_cycle;Signal;HPM_P1;HPM_P2
2021/12/31 00:02:26;;;;;;;0.77;0.77;;;12.70;99.90;;;;;;5031622;28;20232;-65
2021/12/31 00:04:53;;;;;;;0.57;0.57;;;12.70;99.90;;;;;;5031380;28;20239;-66
2021/12/31 00:07:20;;;;;;;0.80;0.80;;;12.60;99.90;;;;;;5032600;28;20209;-66
2021/12/31 00:09:47;;;;;;;0.60;0.60;;;12.50;99.90;;;;;;5050835;28;20204;-66
2021/12/31 00:12:15;;;;;;;0.90;0.90;;;12.50;99.90;;;;;;5046750;28;20224;-65
2021/12/31 00:14:42;;;;;;;0.90;0.90;;;12.40;99.90;;;;;;5049276;28;20227;-65
2021/12/31 00:17:09;;;;;;;0.70;0.70;;;12.30;99.90;;;;;;5050516;28;20209;-66
2021/12/31 00:19:41;;;;;;;0.60;0.60;;;12.20;99.90;;;;;;5036217;28;20296;-66
2021/12/31 00:22:29;;;;;;;1.00;1.00;;;12.10;99.90;;;;;;5028931;28;20205;-65
2021/12/31 00:24:57;;;;;;;0.57;0.57;;;12.10;99.90;;;;;;5031316;28;20225;-66
2021/12/31 00:27:25;;;;;;;0.70;0.70;;;12.00;99.90;;;;;;5031599;28;20291;-67
2021/12/31 00:29:52;;;;;;;0.60;0.60;;;12.00;99.90;;;;;;5042169;28;20219;-64
2021/12/31 00:32:19;;;;;;;0.50;0.50;;;12.00;99.90;;;;;;5055609;28;20224;-65
2021/12/31 00:34:46;;;;;;;0.60;0.60;;;11.90;99.90;;;;;;5045328;28;20212;-65
2021/12/31 00:37:12;;;;;;;0.60;0.60;;;11.90;99.90;;;;;;5050547;28;20193;-63
2021/12/31 00:39:39;;;;;;;0.60;0.60;;;11.90;99.90;;;;;;5036282;28;20208;-65
2021/12/31 00:42:06;;;;;;;0.60;0.60;;;11.90;99.90;;;;;;5030863;28;20287;-65
2021/12/31 00:44:35;;;;;;;0.50;0.50;;;11.80;99.90;;;;;;5029926;28;20235;-65
2021/12/31 00:47:01;;;;;;;0.47;0.47;;;11.80;99.90;;;;;;5031451;28;20288;-66
2021/12/31 00:49:28;;;;;;;0.40;0.40;;;11.70;99.90;;;;;;5031863;28;20231;-67
2021/12/31 00:51:55;;;;;;;0.60;0.60;;;11.70;99.90;;;;;;5031463;28;20228;-67
2021/12/31 00:54:22;;;;;;;0.50;0.50;;;11.70;99.90;;;;;;5030884;28;20301;-66
2021/12/31 00:56:49;;;;;;;0.70;0.70;;;11.60;99.90;;;;;;5031989;28;20291;-64
2021/12/31 00:59:16;;;;;;;0.73;0.73;;;11.60;99.90;;;;;;5032273;28;20311;-68
2021/12/31 01:01:44;;;;;;;0.60;0.60;;;11.60;99.90;;;;;;5031924;28;20268;-65
2021/12/31 01:04:13;;;;;;;0.60;0.60;;;11.50;99.90;;;;;;5031339;28;20295;-64
2021/12/31 01:06:40;;;;;;;0.80;0.80;;;11.50;99.90;;;;;;5030898;28;20209;-66
2021/12/31 01:09:07;;;;;;;0.70;0.70;;;11.40;99.90;;;;;;5032104;28;20319;-65
2021/12/31 01:11:33;;;;;;;0.40;0.40;;;11.40;99.90;;;;;;5035120;28;20252;-67
2021/12/31 01:14:04;;;;;;;0.70;0.70;;;11.30;99.90;;;;;;5035414;28;20258;-68
2021/12/31 01:16:38;;;;;;;0.67;0.67;;;11.20;99.90;;;;;;5031929;28;20211;-65
2021/12/31 01:21:51;;;;;;;0.60;0.60;;;11.10;99.90;;;;;;5034228;28;20235;-66
2021/12/31 01:24:19;;;;;;;0.70;0.70;;;11.00;99.90;;;;;;5048010;28;20208;-66
2021/12/31 01:26:46;;;;;;;0.73;0.73;;;11.00;99.90;;;;;;5043343;28;20208;-65
2021/12/31 01:29:13;;;;;;;0.70;0.70;;;10.90;99.90;;;;;;5030685;28;20298;-64
2021/12/31 01:31:40;;;;;;;0.73;0.73;;;10.90;99.90;;;;;;5033001;28;20264;-63
2021/12/31 01:34:08;;;;;;;0.60;0.60;;;10.90;99.90;;;;;;5032630;28;20247;-64
2021/12/31 01:36:35;;;;;;;0.60;0.60;;;10.80;99.90;;;;;;5033237;28;20284;-66
2021/12/31 01:39:02;;;;;;;0.73;0.60;;;10.80;99.90;;;;;;5033708;28;20320;-66
2021/12/31 01:41:29;;;;;;;1.27;0.50;;;10.80;99.90;;;;;;5032987;28;20229;-66
2021/12/31 01:43:56;;;;;;;0.60;0.60;;;10.80;99.90;;;;;;5028015;28;20377;-64
2021/12/31 01:46:23;;;;;;;0.70;0.70;;;10.80;99.90;;;;;;5033175;28;20224;-65
2021/12/31 01:49:02;;;;;;;0.60;0.60;;;10.80;99.90;;;;;;5034405;28;20209;-66
2021/12/31 01:51:30;;;;;;;0.80;0.80;;;10.80;99.90;;;;;;5024866;28;20224;-65
2021/12/31 01:53:57;;;;;;;0.50;0.50;;;10.60;99.90;;;;;;5029654;28;20247;-65
2021/12/31 01:56:26;;;;;;;0.70;0.70;;;10.70;99.90;;;;;;5032933;28;20332;-66
2021/12/31 01:58:55;;;;;;;0.70;0.70;;;10.70;99.90;;;;;;5031941;28;20200;-64
2021/12/31 02:01:22;;;;;;;0.70;0.70;;;10.70;99.90;;;;;;5032061;28;20315;-65
2021/12/31 02:03:51;;;;;;;0.80;0.80;;;10.70;99.90;;;;;;5032899;28;20211;-66
2021/12/31 02:08:56;;;;;;;0.70;0.70;;;10.60;99.90;;;;;;5022883;28;20224;-63
2021/12/31 02:11:23;;;;;;;0.60;0.60;;;10.60;99.90;;;;;;5018646;28;20211;-62
2021/12/31 02:13:50;;;;;;;0.70;0.70;;;10.60;99.90;;;;;;5013849;28;20288;-64
2021/12/31 02:16:17;;;;;;;0.50;0.50;;;10.60;99.90;;;;;;5013692;28;20640;-63
2021/12/31 02:18:44;;;;;;;0.63;0.63;;;10.50;99.90;;;;;;4994075;28;20245;-62
2021/12/31 02:21:13;;;;;;;0.70;0.70;;;10.50;99.90;;;;;;4993768;28;20205;-63
2021/12/31 02:23:45;;;;;;;0.70;0.70;;;10.40;99.90;;;;;;4993348;28;20213;-62
2021/12/31 02:26:12;;;;;;;0.60;0.60;;;10.30;99.90;;;;;;4994113;28;20182;-63
2021/12/31 02:28:40;;;;;;;0.70;0.70;;;10.30;99.90;;;;;;4995650;28;20236;-63
2021/12/31 02:31:06;;;;;;;0.80;0.80;;;10.30;99.90;;;;;;4997960;28;20237;-63
2021/12/31 02:33:34;;;;;;;0.80;0.80;;;10.30;99.90;;;;;;5005734;28;20201;-64
2021/12/31 02:36:02;;;;;;;0.70;0.70;;;10.30;99.90;;;;;;5001463;28;20261;-62
2021/12/31 02:38:31;;;;;;;0.60;0.60;;;10.30;99.90;;;;;;4998686;28;20265;-63
2021/12/31 02:40:58;;;;;;;0.70;0.70;;;10.30;99.90;;;;;;4995604;28;20256;-63
2021/12/31 02:43:25;;;;;;;0.70;0.70;;;10.20;99.90;;;;;;4994163;28;20206;-64
2021/12/31 02:45:52;;;;;;;0.83;0.83;;;10.30;99.90;;;;;;4993905;28;20206;-62
2021/12/31 02:48:25;;;;;;;0.73;0.73;;;10.20;99.90;;;;;;4994876;28;20632;-63
2021/12/31 02:50:54;;;;;;;0.60;0.60;;;10.20;99.90;;;;;;4993834;28;20218;-63
2021/12/31 02:53:25;;;;;;;0.60;0.60;;;10.20;99.90;;;;;;4995212;28;20298;-62
2021/12/31 02:56:00;;;;;;;0.63;0.63;;;10.20;99.90;;;;;;4995660;28;20229;-62
2021/12/31 02:58:28;;;;;;;0.67;0.67;;;10.20;99.90;;;;;;4993905;28;20559;-65
2021/12/31 03:00:55;;;;;;;0.70;0.70;;;10.20;99.90;;;;;;4994963;28;20213;-64
2021/12/31 03:03:23;;;;;;;0.67;0.60;;;10.10;99.90;;;;;;4994816;28;20301;-64
2021/12/31 03:05:53;;;;;;;0.67;0.67;;;10.20;99.90;;;;;;4994635;28;20293;-65
2021/12/31 03:08:21;;;;;;;0.60;0.60;;;10.10;99.90;;;;;;4994495;28;20336;-62
2021/12/31 03:10:49;;;;;;;0.70;0.70;;;10.10;99.90;;;;;;4994922;28;20209;-64
2021/12/31 03:13:18;;;;;;;0.70;0.70;;;10.10;99.90;;;;;;4994501;28;20269;-63
2021/12/31 03:15:45;;;;;;;0.80;0.80;;;10.20;99.90;;;;;;5003300;28;20238;-64
2021/12/31 03:18:12;;;;;;;0.70;0.70;;;10.20;99.90;;;;;;5014748;28;20225;-64
2021/12/31 03:20:43;;;;;;;0.60;0.60;;;10.10;99.90;;;;;;5015049;28;20210;-62
2021/12/31 03:23:11;;;;;;;0.80;0.80;;;10.10;99.90;;;;;;5015381;28;20671;-62
2021/12/31 03:25:38;;;;;;;0.60;0.60;;;10.10;99.90;;;;;;5015678;28;20308;-63
2021/12/31 03:28:05;;;;;;;0.80;0.80;;;10.10;99.90;;;;;;5012980;28;20256;-64
2021/12/31 03:30:33;;;;;;;0.70;0.70;;;10.10;99.90;;;;;;5012920;28;20288;-64
2021/12/31 03:33:00;;;;;;;0.70;0.70;;;10.20;99.90;;;;;;5012529;28;20292;-63
2021/12/31 03:35:27;;;;;;;0.60;0.60;;;10.20;99.90;;;;;;5012940;28;20225;-64
2021/12/31 03:37:55;;;;;;;0.70;0.70;;;10.20;99.90;;;;;;5012348;28;20236;-64
2021/12/31 03:40:22;;;;;;;0.90;0.90;;;10.20;99.90;;;;;;5013213;28;20330;-64
2021/12/31 03:42:49;;;;;;;0.60;0.60;;;10.20;99.90;;;;;;5013883;28;20689;-63
2021/12/31 03:45:16;;;;;;;0.50;0.50;;;10.30;99.90;;;;;;5013583;28;20297;-64
2021/12/31 03:47:44;;;;;;;0.60;0.60;;;10.20;99.90;;;;;;5012602;28;20316;-63
2021/12/31 03:50:11;;;;;;;0.60;0.60;;;10.20;99.90;;;;;;5012229;28;20304;-64
2021/12/31 03:52:39;;;;;;;0.60;0.60;;;10.30;99.90;;;;;;5012311;28;20201;-63
2021/12/31 03:55:07;;;;;;;0.50;0.50;;;10.20;99.90;;;;;;5012684;28;20221;-62
2021/12/31 03:57:34;;;;;;;0.70;0.70;;;10.20;99.90;;;;;;5012221;28;20230;-64
2021/12/31 04:00:01;;;;;;;0.73;0.73;;;10.20;99.90;;;;;;5012289;28;20722;-62
2021/12/31 04:02:28;;;;;;;0.70;0.70;;;10.20;99.90;;;;;;5012107;28;20795;-63
2021/12/31 04:04:56;;;;;;;0.70;0.70;;;10.10;99.90;;;;;;5013151;28;20210;-64
2021/12/31 04:07:23;;;;;;;0.70;0.70;;;10.00;99.90;;;;;;5011770;28;20233;-64
2021/12/31 04:09:50;;;;;;;0.60;0.60;;;10.00;99.90;;;;;;5012435;28;20605;-65
2021/12/31 04:12:17;;;;;;;0.87;0.87;;;10.00;99.90;;;;;;5011885;28;20674;-64
2021/12/31 04:14:44;;;;;;;0.60;0.60;;;9.90;99.90;;;;;;5012304;28;20248;-63
2021/12/31 04:17:11;;;;;;;0.60;0.60;;;9.80;99.90;;;;;;5011637;28;20719;-64
2021/12/31 04:19:38;;;;;;;0.70;0.70;;;9.90;99.90;;;;;;5012607;28;20299;-62
2021/12/31 04:22:08;;;;;;;0.63;0.63;;;9.90;99.90;;;;;;5013322;28;20233;-63
2021/12/31 04:27:16;;;;;;;0.70;0.70;;;9.80;99.90;;;;;;5012557;28;20217;-63
2021/12/31 04:29:50;;;;;;;1.03;1.00;;;9.80;99.90;;;;;;5020598;28;20236;-62
2021/12/31 04:32:17;;;;;;;0.80;0.80;;;9.80;99.90;;;;;;5025404;28;20189;-64
2021/12/31 04:34:44;;;;;;;0.77;0.77;;;9.60;99.90;;;;;;5011727;28;20659;-63
2021/12/31 04:37:12;;;;;;;0.73;0.73;;;9.50;99.90;;;;;;5011890;28;20239;-65
2021/12/31 04:39:39;;;;;;;0.80;0.80;;;9.50;99.90;;;;;;5012722;28;20209;-64
2021/12/31 04:42:06;;;;;;;0.80;0.80;;;9.50;99.90;;;;;;5013634;28;20304;-63
2021/12/31 04:44:33;;;;;;;0.60;0.60;;;9.40;99.90;;;;;;5012965;28;20196;-63
2021/12/31 04:47:00;;;;;;;1.00;0.83;;;9.40;99.90;;;;;;5015401;28;20235;-63
2021/12/31 04:49:27;;;;;;;0.70;0.70;;;9.40;99.90;;;;;;5016039;28;20297;-63
2021/12/31 04:51:54;;;;;;;0.60;0.60;;;9.60;99.90;;;;;;5018147;28;20205;-63
2021/12/31 04:54:22;;;;;;;0.60;0.60;;;9.40;99.90;;;;;;5017998;28;20296;-63
2021/12/31 04:56:52;;;;;;;0.53;0.53;;;9.40;99.90;;;;;;5016368;28;20647;-64
2021/12/31 04:59:19;;;;;;;0.70;0.70;;;9.40;99.90;;;;;;5015537;28;20260;-63
2021/12/31 05:01:47;;;;;;;0.70;0.70;;;9.50;99.90;;;;;;5007601;28;20220;-63
2021/12/31 05:04:14;;;;;;;0.90;0.90;;;9.50;99.90;;;;;;5015378;28;20209;-63
2021/12/31 05:06:42;;;;;;;0.73;0.73;;;9.60;99.90;;;;;;5003565;28;20329;-63
2021/12/31 05:09:09;;;;;;;0.80;0.80;;;9.60;99.90;;;;;;4996019;28;20209;-65
2021/12/31 05:11:37;;;;;;;0.70;0.70;;;9.60;99.90;;;;;;4997363;28;20226;-64
2021/12/31 05:14:05;;;;;;;0.90;0.90;;;9.60;99.90;;;;;;4999828;28;20252;-63
2021/12/31 05:16:35;;;;;;;0.80;0.80;;;9.60;99.90;;;;;;5000050;28;20305;-62
2021/12/31 05:19:02;;;;;;;0.70;0.70;;;9.50;99.90;;;;;;4997315;28;20202;-64
2021/12/31 05:21:29;;;;;;;0.70;0.70;;;9.60;99.90;;;;;;4995824;28;20288;-63
2021/12/31 05:23:56;;;;;;;0.77;0.77;;;9.50;99.90;;;;;;4995843;28;20293;-65
2021/12/31 05:26:23;;;;;;;0.60;0.60;;;9.50;99.90;;;;;;4995037;28;20293;-65
2021/12/31 05:28:52;;;;;;;0.70;0.70;;;9.50;99.90;;;;;;4995419;28;20214;-66
2021/12/31 05:31:19;;;;;;;0.60;0.60;;;9.40;99.90;;;;;;4995653;28;20214;-63
2021/12/31 05:33:45;;;;;;;0.50;0.50;;;9.40;99.90;;;;;;4996270;28;20206;-64
2021/12/31 05:36:12;;;;;;;0.73;0.73;;;9.40;99.90;;;;;;4996394;28;20678;-64
2021/12/31 05:38:39;;;;;;;0.73;0.73;;;9.30;99.90;;;;;;4995450;28;20230;-62
2021/12/31 05:41:06;;;;;;;0.63;0.63;;;9.30;99.90;;;;;;4995319;28;20295;-65
2021/12/31 05:43:33;;;;;;;0.70;0.70;;;9.20;99.90;;;;;;4995713;28;20297;-62
2021/12/31 05:46:02;;;;;;;0.80;0.80;;;9.20;99.90;;;;;;4994918;28;20202;-64
2021/12/31 05:48:30;;;;;;;0.80;0.80;;;9.30;99.90;;;;;;4995319;28;20316;-64
2021/12/31 05:50:57;;;;;;;0.80;0.80;;;9.20;99.90;;;;;;4995360;28;20734;-63
2021/12/31 05:53:25;;;;;;;0.83;0.80;;;9.20;99.90;;;;;;4995132;28;20210;-64
2021/12/31 05:55:52;;;;;;;0.77;0.77;;;9.10;99.90;;;;;;4994899;28;20321;-63
2021/12/31 05:58:19;;;;;;;0.63;0.63;;;9.10;99.90;;;;;;4995235;28;20316;-64
2021/12/31 06:00:45;;;;;;;0.70;0.70;;;9.00;99.90;;;;;;4995298;28;20297;-63
2021/12/31 06:03:14;;;;;;;0.90;0.90;;;9.00;99.90;;;;;;4995404;28;20297;-63
2021/12/31 06:05:41;;;;;;;0.80;0.80;;;9.00;99.90;;;;;;4995448;28;20721;-65
2021/12/31 06:08:07;;;;;;;1.00;1.00;;;9.00;99.90;;;;;;4994577;28;20287;-64
2021/12/31 06:10:34;;;;;;;0.80;0.80;;;9.00;99.90;;;;;;4996864;28;20256;-63
2021/12/31 06:13:01;;;;;;;0.70;0.70;;;8.90;99.90;;;;;;4995935;28;20293;-63
2021/12/31 06:15:29;;;;;;;0.80;0.80;;;9.00;99.90;;;;;;4995955;28;20293;-63
2021/12/31 06:17:56;;;;;;;0.77;0.77;;;8.90;99.90;;;;;;4995149;28;20261;-64
2021/12/31 06:20:28;;;;;;;0.60;0.60;;;8.90;99.90;;;;;;4995257;28;20639;-64
2021/12/31 06:22:57;;;;;;;0.80;0.80;;;8.80;99.90;;;;;;4996152;28;20571;-63
2021/12/31 06:25:24;;;;;;;0.90;0.90;;;8.80;99.90;;;;;;4998619;28;20213;-65
2021/12/31 06:27:51;;;;;;;0.80;0.80;;;8.90;99.90;;;;;;5004812;28;20228;-64
2021/12/31 06:30:18;;;;;;;0.60;0.60;;;8.90;99.90;;;;;;5013783;28;20233;-63
2021/12/31 06:32:45;;;;;;;0.63;0.63;;;9.00;99.90;;;;;;5003364;28;20244;-65
2021/12/31 06:35:12;;;;;;;0.60;0.60;;;9.10;99.90;;;;;;4995070;28;20241;-64
2021/12/31 06:37:40;;;;;;;0.60;0.60;;;9.10;99.90;;;;;;4995004;28;20226;-63
2021/12/31 06:40:10;;;;;;;0.70;0.70;;;9.00;99.90;;;;;;4994716;28;20237;-63
2021/12/31 06:42:37;;;;;;;0.70;0.70;;;9.00;99.90;;;;;;4994912;28;20332;-64
2021/12/31 06:45:05;;;;;;;0.70;0.70;;;9.00;99.90;;;;;;4995155;28;20288;-64
2021/12/31 06:47:32;;;;;;;0.70;0.70;;;9.00;99.90;;;;;;4996235;28;20297;-64
2021/12/31 06:49:59;;;;;;;0.50;0.50;;;9.00;99.90;;;;;;5001925;28;20244;-65
2021/12/31 06:52:26;;;;;;;0.60;0.60;;;9.00;99.90;;;;;;5001878;28;20293;-62
2021/12/31 06:54:54;;;;;;;0.70;0.70;;;9.00;99.90;;;;;;4997939;28;20671;-64
2021/12/31 06:57:21;;;;;;;0.70;0.70;;;9.00;99.90;;;;;;4998639;28;20283;-62
2021/12/31 06:59:48;;;;;;;0.63;0.63;;;8.90;99.90;;;;;;4999063;28;20760;-64
2021/12/31 07:02:15;;;;;;;0.60;0.60;;;8.90;99.90;;;;;;4999086;28;20229;-64
2021/12/31 07:04:42;;;;;;;0.67;0.67;;;8.90;99.90;;;;;;4999783;28;20210;-64
2021/12/31 07:07:09;;;;;;;0.60;0.60;;;8.90;99.90;;;;;;4997713;28;20226;-62
2021/12/31 07:09:35;;;;;;;0.57;0.57;;;8.90;99.90;;;;;;4997649;28;20672;-64
2021/12/31 07:12:04;;;;;;;0.60;0.60;;;8.80;99.90;;;;;;4994813;28;20229;-65
2021/12/31 07:14:31;;;;;;;0.80;0.70;;;8.90;99.90;;;;;;4995186;28;20219;-63
2021/12/31 07:16:58;;;;;;;0.73;0.73;;;8.80;99.90;;;;;;4997701;28;20325;-62
2021/12/31 07:19:25;;;;;;;0.67;0.67;;;8.80;99.90;;;;;;4997340;28;20241;-63
2021/12/31 07:21:52;;;;;;;0.80;0.80;;;8.80;99.90;;;;;;5009024;28;20232;-63
2021/12/31 07:24:19;;;;;;;0.70;0.70;;;8.70;99.90;;;;;;5014251;28;20276;-63
2021/12/31 07:26:46;;;;;;;0.87;0.87;;;8.70;99.90;;;;;;4998397;28;20213;-65
2021/12/31 07:29:14;;;;;;;0.60;0.60;;;8.70;99.90;;;;;;5003795;28;20695;-62
2021/12/31 07:31:41;;;;;;;0.80;0.80;;;8.60;99.90;;;;;;4996530;28;20214;-62
2021/12/31 07:34:08;;;;;;;0.80;0.80;;;8.60;99.90;;;;;;4993480;28;20689;-64
2021/12/31 07:36:35;;;;;;;0.70;0.70;;;8.60;99.90;;;;;;5005252;28;20225;-63
2021/12/31 07:39:06;;;;;;;0.73;0.73;;;8.60;99.90;;;;;;5006694;28;20201;-64
2021/12/31 07:41:33;;;;;;;0.90;0.90;;;8.60;99.90;;;;;;5015414;28;20252;-64
2021/12/31 07:44:01;;;;;;;0.90;0.90;;;8.60;99.90;;;;;;5009849;28;20225;-63
2021/12/31 07:46:29;;;;;;;1.10;1.10;;;8.60;99.90;;;;;;5006880;28;20288;-64
2021/12/31 07:48:56;;;;;;;0.80;0.80;;;8.60;99.90;;;;;;5015388;28;20202;-63
2021/12/31 07:51:23;;;;;;;0.60;0.60;;;8.80;99.90;;;;;;5012398;28;20206;-62
2021/12/31 07:53:50;;;;;;;0.90;0.90;;;8.80;99.90;;;;;;4996440;28;20264;-63
2021/12/31 07:56:19;;;;;;;0.80;0.80;;;8.90;99.90;;;;;;4995229;28;20645;-63
2021/12/31 07:58:47;;;;;;;0.90;0.90;;;9.00;99.90;;;;;;4997235;28;20233;-64
2021/12/31 08:01:16;;;;;;;0.87;0.87;;;8.90;99.90;;;;;;5007833;28;20255;-63
2021/12/31 08:03:45;;;;;;;1.00;1.00;;;8.90;99.90;;;;;;5016959;28;20260;-62
2021/12/31 08:06:12;;;;;;;0.83;0.83;;;8.80;99.90;;;;;;5015092;28;20305;-62
2021/12/31 08:08:39;;;;;;;1.03;1.03;;;8.80;99.90;;;;;;5014631;28;20245;-65
2021/12/31 08:11:06;;;;;;;1.00;1.00;;;8.80;99.90;;;;;;5008158;28;20233;-64
2021/12/31 08:13:32;;;;;;;1.00;1.00;;;8.90;99.90;;;;;;5000352;28;20202;-63
2021/12/31 08:15:59;;;;;;;0.90;0.90;;;8.90;99.90;;;;;;5004959;28;20280;-64
2021/12/31 08:18:26;;;;;;;0.80;0.80;;;8.90;99.90;;;;;;5008601;28;20696;-62
2021/12/31 08:20:55;;;;;;;1.00;1.00;;;9.00;99.90;;;;;;5004678;28;20300;-64
2021/12/31 08:23:22;;;;;;;1.10;1.10;;;9.00;99.90;;;;;;4996448;28;20240;-64
2021/12/31 08:25:49;;;;;;;1.07;1.07;;;9.00;99.90;;;;;;5004118;28;20265;-64
2021/12/31 08:28:17;;;;;;;1.00;1.00;;;9.00;99.90;;;;;;5027690;22;20252;-77
2021/12/31 08:30:43;;;;;;;1.00;1.00;;;9.00;99.90;;;;;;5031512;22;20296;-60
2021/12/31 08:33:10;;;;;;;0.90;0.90;;;9.00;99.90;;;;;;5020223;28;20287;-61
2021/12/31 08:35:37;;;;;;;0.90;0.90;;;9.00;99.90;;;;;;5033596;28;20210;-61
2021/12/31 08:38:05;;;;;;;1.10;1.10;;;9.00;99.90;;;;;;5034552;28;20252;-62
2021/12/31 08:40:33;;;;;;;1.00;1.00;;;9.10;99.90;;;;;;5044002;28;20228;-63
2021/12/31 08:43:00;;;;;;;1.07;1.00;;;9.20;99.90;;;;;;5043062;28;20255;-61
2021/12/31 08:45:29;;;;;;;0.80;0.80;;;9.40;99.90;;;;;;5033918;28;20320;-61
2021/12/31 08:47:57;;;;;;;0.90;0.90;;;9.60;99.90;;;;;;5032973;28;20720;-62
2021/12/31 08:50:24;;;;;;;0.90;0.90;;;9.60;99.90;;;;;;5033319;28;20597;-61
2021/12/31 08:52:51;;;;;;;0.73;0.73;;;9.70;99.90;;;;;;5033229;28;20208;-65
2021/12/31 08:55:20;;;;;;;0.60;0.60;;;9.90;99.90;;;;;;5032269;28;20209;-62
2021/12/31 08:57:47;;;;;;;1.00;1.00;;;10.00;99.90;;;;;;5032251;28;20636;-62
2021/12/31 09:00:14;;;;;;;0.80;0.80;;;10.10;99.90;;;;;;5032462;28;20204;-63
2021/12/31 09:02:42;;;;;;;0.80;0.80;;;10.20;99.90;;;;;;5032905;28;20291;-64
2021/12/31 09:05:10;;;;;;;0.50;0.50;;;10.30;99.90;;;;;;5032844;28;20223;-64
2021/12/31 09:07:36;;;;;;;0.60;0.60;;;10.40;99.90;;;;;;5033187;28;20236;-63
2021/12/31 09:10:05;;;;;;;0.90;0.90;;;10.50;99.90;;;;;;5033550;28;20271;-63
2021/12/31 09:12:34;;;;;;;0.80;0.80;;;10.50;99.90;;;;;;5037101;28;20201;-65
2021/12/31 09:15:01;;;;;;;1.00;1.00;;;10.60;99.90;;;;;;5035845;28;20300;-63
2021/12/31 09:17:28;;;;;;;0.80;0.80;;;10.70;99.90;;;;;;5032320;28;20698;-64
2021/12/31 09:19:55;;;;;;;0.70;0.70;;;10.70;99.90;;;;;;5032817;28;20244;-64
2021/12/31 09:22:22;;;;;;;1.27;0.90;;;10.90;99.90;;;;;;5032691;28;20311;-61
2021/12/31 09:24:49;;;;;;;0.80;0.80;;;10.90;99.90;;;;;;5045457;28;20702;-63
2021/12/31 09:27:16;;;;;;;0.70;0.70;;;11.00;99.90;;;;;;5044385;28;20204;-64
2021/12/31 09:29:45;;;;;;;0.90;0.90;;;11.10;99.90;;;;;;5032710;28;20288;-62
2021/12/31 09:32:12;;;;;;;0.90;0.90;;;11.30;99.90;;;;;;5033917;28;20319;-64
2021/12/31 09:34:42;;;;;;;0.70;0.70;;;11.40;99.90;;;;;;5036020;28;20210;-64
2021/12/31 09:37:10;;;;;;;0.70;0.70;;;11.50;99.90;;;;;;5035773;28;20220;-64
2021/12/31 09:39:37;;;;;;;1.00;1.00;;;11.60;99.90;;;;;;5036067;28;20209;-62
2021/12/31 09:42:04;;;;;;;0.80;0.80;;;11.70;99.90;;;;;;5037766;28;20228;-62
2021/12/31 09:44:33;;;;;;;0.90;0.90;;;11.70;99.90;;;;;;5037606;28;20235;-63
2021/12/31 09:47:07;;;;;;;0.90;0.90;;;11.90;99.90;;;;;;5031037;28;20283;-62
2021/12/31 09:49:34;;;;;;;0.90;0.90;;;12.00;99.90;;;;;;5031794;28;20211;-63
2021/12/31 09:52:02;;;;;;;0.90;0.90;;;12.10;99.90;;;;;;5035307;28;20311;-64
2021/12/31 09:54:29;;;;;;;0.83;0.83;;;12.10;99.90;;;;;;5035342;28;20208;-63
2021/12/31 09:56:56;;;;;;;0.90;0.90;;;12.30;99.90;;;;;;5013734;28;20236;-60
2021/12/31 09:59:27;;;;;;;0.90;0.90;;;12.30;99.90;;;;;;5004160;28;20210;-61
2021/12/31 10:01:54;;;;;;;0.90;0.90;;;12.30;99.90;;;;;;5018247;28;20427;-63
2021/12/31 10:04:22;;;;;;;0.90;0.90;;;12.40;99.90;;;;;;5015788;28;20279;-62
2021/12/31 10:07:06;;;;;;;0.80;0.80;;;12.50;99.90;;;;;;5026852;28;20201;-63
2021/12/31 10:09:34;;;;;;;0.80;0.80;;;12.60;99.90;;;;;;5034907;28;20251;-62
2021/12/31 10:12:01;;;;;;;0.70;0.70;;;12.70;99.90;;;;;;5034461;28;20303;-63
2021/12/31 10:14:34;;;;;;;0.70;0.70;;;12.80;99.90;;;;;;5034466;28;20268;-64
2021/12/31 10:17:01;;;;;;;0.90;0.90;;;12.90;99.90;;;;;;5036874;28;20232;-63
2021/12/31 10:19:29;;;;;;;0.80;0.80;;;13.10;99.90;;;;;;5025933;28;20270;-64
2021/12/31 10:21:56;;;;;;;0.70;0.70;;;13.20;99.90;;;;;;5025778;28;20775;-65
2021/12/31 10:24:26;;;;;;;0.60;0.60;;;13.20;99.90;;;;;;5027575;28;20752;-61
2021/12/31 10:26:54;;;;;;;0.80;0.80;;;13.30;99.90;;;;;;5035327;28;20662;-64
2021/12/31 10:29:22;;;;;;;0.60;0.60;;;13.40;99.90;;;;;;5035810;28;20254;-64
2021/12/31 10:31:51;;;;;;;0.90;0.90;;;13.50;99.90;;;;;;5005271;28;20654;-64
2021/12/31 10:34:31;;;;;;;1.00;1.00;;;13.50;99.90;;;;;;5020654;28;20205;-63
2021/12/31 10:36:59;;;;;;;1.10;1.10;;;13.60;99.90;;;;;;5011474;28;20289;-65
2021/12/31 10:39:29;;;;;;;1.27;1.27;;;13.70;99.90;;;;;;4999460;28;20281;-63
2021/12/31 10:42:07;;;;;;;0.80;0.80;;;13.80;99.90;;;;;;5015568;28;20255;-63
2021/12/31 10:44:45;;;;;;;0.80;0.80;;;13.90;99.90;;;;;;5030049;28;20217;-64
2021/12/31 10:47:14;;;;;;;0.87;0.87;;;14.00;99.90;;;;;;5034929;28;20597;-62
2021/12/31 10:50:13;;;;;;;0.60;0.60;;;14.10;99.90;;;;;;5014855;28;20505;-64
2021/12/31 10:52:46;;;;;;;0.60;0.60;;;14.20;99.90;;;;;;4997246;28;20233;-63
2021/12/31 10:55:25;;;;;;;0.80;0.80;;;14.30;99.90;;;;;;4998880;28;20233;-63
2021/12/31 10:57:54;;;;;;;0.67;0.67;;;14.30;99.90;;;;;;5009908;28;20304;-64
2021/12/31 11:00:22;;;;;;;0.70;0.70;;;14.30;99.90;;;;;;5010851;28;20215;-64
2021/12/31 11:02:49;;;;;;;0.70;0.70;;;14.40;99.90;;;;;;5028382;28;20259;-64
2021/12/31 11:05:22;;;;;;;0.80;0.80;;;14.50;99.90;;;;;;5031309;28;20319;-61
2021/12/31 11:07:50;;;;;;;0.80;0.80;;;14.60;99.90;;;;;;5025735;28;20260;-63
2021/12/31 11:10:19;;;;;;;0.70;0.70;;;14.60;99.90;;;;;;5034145;28;20232;-66
2021/12/31 11:12:48;;;;;;;0.93;0.93;;;14.80;99.90;;;;;;5034021;28;20258;-63
2021/12/31 11:15:16;;;;;;;0.70;0.70;;;14.80;99.90;;;;;;5034342;28;20296;-64
2021/12/31 11:17:43;;;;;;;0.70;0.70;;;14.80;99.90;;;;;;5033592;28;20328;-63
2021/12/31 11:20:12;;;;;;;0.70;0.70;;;14.90;99.90;;;;;;5034237;28;20232;-63
2021/12/31 11:22:40;;;;;;;0.80;0.80;;;15.00;99.90;;;;;;5013750;28;20283;-62
2021/12/31 11:25:22;;;;;;;0.60;0.60;;;15.10;99.90;;;;;;5018958;28;20282;-63
2021/12/31 11:27:51;;;;;;;0.60;0.60;;;15.20;99.90;;;;;;5013788;28;20256;-64
2021/12/31 11:30:31;;;;;;;0.70;0.70;;;15.20;99.90;;;;;;5014411;28;20212;-64
2021/12/31 11:33:01;;;;;;;0.80;0.80;;;15.30;99.90;;;;;;5026416;28;20189;-62
2021/12/31 11:35:36;;;;;;;0.80;0.80;;;15.40;99.90;;;;;;5024658;28;20210;-63
2021/12/31 11:38:07;;;;;;;0.80;0.80;;;15.50;99.90;;;;;;5026415;28;20256;-64
2021/12/31 11:40:35;;;;;;;0.80;0.80;;;15.60;99.90;;;;;;5026392;28;20256;-63
2021/12/31 11:43:16;;;;;;;0.50;0.50;;;15.70;99.90;;;;;;5022794;28;20238;-63
2021/12/31 11:45:43;;;;;;;0.63;0.63;;;15.80;99.90;;;;;;5012618;28;20220;-63
2021/12/31 11:48:43;;;;;;;0.60;0.60;;;15.80;99.90;;;;;;5012796;28;20212;-63
2021/12/31 11:51:11;;;;;;;0.67;0.67;;;15.90;99.90;;;;;;5013245;28;20224;-62
2021/12/31 11:54:26;;;;;;;0.77;0.77;;;15.80;99.90;;;;;;5025717;28;20250;-63
2021/12/31 11:57:11;;;;;;;0.77;0.77;;;15.80;99.90;;;;;;4991737;28;20213;-63
2021/12/31 11:59:51;;;;;;;0.60;0.60;;;15.70;99.90;;;;;;4985462;28;20205;-63
2021/12/31 12:02:20;;;;;;;0.70;0.70;;;15.60;99.90;;;;;;4969526;28;20269;-62
2021/12/31 12:05:08;;;;;;;0.60;0.60;;;15.50;99.90;;;;;;4968729;28;20211;-63
2021/12/31 12:07:37;;;;;;;0.60;0.60;;;15.40;99.90;;;;;;4969544;28;20237;-63
2021/12/31 12:10:17;;;;;;;0.77;0.77;;;15.40;99.90;;;;;;4970997;28;20297;-63
2021/12/31 12:12:49;;;;;;;0.70;0.70;;;15.30;99.90;;;;;;4970941;28;20626;-63
2021/12/31 12:15:40;;;;;;;0.80;0.80;;;15.40;99.90;;;;;;4971081;28;20216;-62
2021/12/31 12:18:08;;;;;;;0.90;0.90;;;15.20;99.90;;;;;;4970985;28;20227;-63
2021/12/31 12:20:45;;;;;;;0.90;0.90;;;15.20;99.90;;;;;;4970603;28;20704;-62
2021/12/31 12:23:21;;;;;;;1.00;1.00;;;15.10;99.90;;;;;;4970497;28;20206;-62
2021/12/31 12:25:48;;;;;;;0.90;0.90;;;15.00;99.90;;;;;;4969962;28;20756;-62
2021/12/31 12:28:20;;;;;;;0.97;0.97;;;15.00;99.90;;;;;;5006516;28;20193;-63
2021/12/31 12:30:53;;;;;;;1.00;1.00;;;15.00;99.90;;;;;;5012012;28;20236;-62
2021/12/31 12:33:22;;;;;;;1.00;1.00;;;15.10;99.90;;;;;;5012074;28;20217;-63
2021/12/31 12:35:51;;;;;;;0.90;0.90;;;15.20;99.90;;;;;;5011875;28;20537;-62
2021/12/31 12:38:21;;;;;;;0.80;0.80;;;15.20;99.90;;;;;;5011969;28;20288;-62
2021/12/31 12:40:51;;;;;;;0.90;0.90;;;15.20;99.90;;;;;;5012578;28;20287;-62
2021/12/31 12:43:21;;;;;;;1.00;1.00;;;15.20;99.90;;;;;;5011571;28;20644;-62
2021/12/31 12:45:50;;;;;;;0.80;0.80;;;15.20;99.90;;;;;;5012676;28;20237;-62
2021/12/31 12:48:17;;;;;;;0.80;0.80;;;15.40;99.90;;;;;;5010451;28;20288;-62
2021/12/31 12:50:49;;;;;;;0.80;0.80;;;15.40;99.90;;;;;;5019738;28;20232;-63
2021/12/31 12:53:21;;;;;;;0.90;0.90;;;15.50;99.90;;;;;;5011267;28;20206;-64
2021/12/31 12:55:48;;;;;;;0.90;0.90;;;15.50;99.90;;;;;;5011505;28;20205;-63
2021/12/31 12:58:24;;;;;;;0.97;0.97;;;15.50;99.90;;;;;;5011804;28;20229;-63
2021/12/31 13:00:55;;;;;;;0.80;0.80;;;15.50;99.90;;;;;;5011199;28;20291;-63
2021/12/31 13:03:25;;;;;;;0.90;0.90;;;15.50;99.90;;;;;;5011959;28;20205;-62
2021/12/31 13:06:03;;;;;;;0.90;0.90;;;15.50;99.90;;;;;;5017129;28;20677;-63
2021/12/31 13:08:31;;;;;;;1.00;1.00;;;15.50;99.90;;;;;;5002719;28;20296;-64